createdAt,value
2019-02-02T00:01:30.947Z,30.33
2019-02-02T00:03:57.953Z,29.70
2019-02-02T00:06:24.866Z,32.10
2019-02-02T00:11:25.212Z,34.27
2019-02-02T00:13:52.177Z,31.53
2019-02-02T00:16:19.268Z,30.07
2019-02-02T00:18:46.032Z,30.07
2019-02-02T00:21:13.323Z,32.90
2019-02-02T00:23:40.127Z,31.17
2019-02-02T00:26:06.907Z,30.40
2019-02-02T00:28:33.983Z,32.83
2019-02-02T00:31:00.796Z,29.70
2019-02-02T00:33:27.598Z,32.30
2019-02-02T00:35:54.696Z,35.10
2019-02-02T00:38:21.614Z,32.80
2019-02-02T00:40:48.750Z,33.33
2019-02-02T00:43:15.836Z,33.17
2019-02-02T00:45:42.891Z,31.20
2019-02-02T00:48:09.721Z,34.67
2019-02-02T00:50:36.796Z,33.23
2019-02-02T00:53:03.815Z,39.67
2019-02-02T00:55:30.838Z,35.70
2019-02-02T00:57:57.647Z,34.70
2019-02-02T01:00:24.612Z,35.07
2019-02-02T01:02:51.926Z,34.90
2019-02-02T01:05:19.071Z,34.43
2019-02-02T01:07:46.240Z,33.30
2019-02-02T01:10:17.073Z,34.40
2019-02-02T01:12:44.442Z,35.50
2019-02-02T01:15:11.955Z,34.40
2019-02-02T01:17:38.971Z,33.43
2019-02-02T01:20:06.779Z,38.27
2019-02-02T01:22:33.807Z,37.00
2019-02-02T01:25:00.659Z,38.07
2019-02-02T01:27:27.720Z,36.60
2019-02-02T01:29:54.780Z,31.50
2019-02-02T01:32:21.771Z,33.73
2019-02-02T01:34:49.092Z,34.83
2019-02-02T01:37:15.967Z,35.97
2019-02-02T01:39:43.102Z,35.77
2019-02-02T01:42:10.281Z,33.83
2019-02-02T01:44:37.011Z,37.50
2019-02-02T01:47:03.739Z,37.13
2019-02-02T01:49:30.626Z,39.43
2019-02-02T01:51:57.635Z,38.80
2019-02-02T01:54:24.507Z,35.30
2019-02-02T01:56:51.505Z,33.87
2019-02-02T01:59:18.267Z,39.87
2019-02-02T02:01:45.135Z,37.60
2019-02-02T02:04:11.867Z,36.93
2019-02-02T02:06:38.735Z,36.67
2019-02-02T02:09:06.758Z,39.10
2019-02-02T02:11:33.719Z,33.47
2019-02-02T02:14:00.448Z,40.27
2019-02-02T02:16:27.311Z,39.93
2019-02-02T02:18:54.336Z,42.20
2019-02-02T02:21:21.241Z,40.87
2019-02-02T02:23:47.987Z,42.43
2019-02-02T02:26:14.862Z,41.30
2019-02-02T02:28:41.655Z,41.33
2019-02-02T02:31:08.623Z,41.13
2019-02-02T02:33:35.483Z,44.47
2019-02-02T02:36:03.771Z,39.47
2019-02-02T02:38:30.599Z,42.23
2019-02-02T02:40:57.463Z,43.60
2019-02-02T02:43:24.431Z,41.70
2019-02-02T02:45:51.370Z,35.03
2019-02-02T02:48:18.159Z,37.13
2019-02-02T02:50:44.935Z,38.93
2019-02-02T02:53:11.668Z,41.00
2019-02-02T02:55:38.878Z,36.83
2019-02-02T02:58:06.000Z,36.13
2019-02-02T03:00:32.811Z,37.43
2019-02-02T03:02:59.659Z,38.97
2019-02-02T03:05:26.627Z,40.67
2019-02-02T03:07:53.770Z,32.67
2019-02-02T03:10:22.084Z,37.30
2019-02-02T03:12:49.035Z,35.00
2019-02-02T03:15:16.156Z,37.17
2019-02-02T03:17:43.251Z,38.43
2019-02-02T03:20:10.807Z,40.70
2019-02-02T03:22:37.779Z,39.73
2019-02-02T03:25:07.616Z,43.30
2019-02-02T03:27:34.459Z,39.23
2019-02-02T03:30:01.303Z,40.27
2019-02-02T03:32:28.254Z,38.83
2019-02-02T03:34:55.151Z,39.67
2019-02-02T03:37:21.924Z,40.50
2019-02-02T03:39:48.735Z,38.50
2019-02-02T03:42:15.608Z,40.87
2019-02-02T03:44:42.612Z,39.73
2019-02-02T03:47:09.558Z,41.90
2019-02-02T03:49:36.456Z,40.00
2019-02-02T03:52:03.442Z,37.10
2019-02-02T03:54:30.157Z,43.33
2019-02-02T03:56:56.901Z,40.23
2019-02-02T03:59:23.763Z,41.17
2019-02-02T04:01:50.820Z,34.33
2019-02-02T04:04:17.732Z,42.23
2019-02-02T04:06:44.571Z,40.73
2019-02-02T04:09:11.595Z,41.70
2019-02-02T04:11:38.568Z,42.20
2019-02-02T04:14:05.496Z,43.50
2019-02-02T04:16:32.485Z,40.07
2019-02-02T04:18:59.319Z,39.53
2019-02-02T04:21:26.259Z,40.17
2019-02-02T04:23:53.117Z,39.37
2019-02-02T04:26:19.954Z,36.43
2019-02-02T04:28:46.811Z,41.23
2019-02-02T04:31:13.651Z,42.23
2019-02-02T04:33:40.499Z,40.70
2019-02-02T04:36:07.356Z,39.57
2019-02-02T04:38:34.088Z,41.27
2019-02-02T04:41:00.828Z,45.20
2019-02-02T04:43:27.564Z,40.03
2019-02-02T04:45:54.435Z,41.73
2019-02-02T04:48:21.297Z,42.60
2019-02-02T04:50:48.079Z,39.13
2019-02-02T04:53:14.963Z,44.20
2019-02-02T04:55:41.803Z,43.60
2019-02-02T04:58:08.521Z,46.77
2019-02-02T05:00:35.353Z,41.33
2019-02-02T05:03:02.402Z,40.70
2019-02-02T05:05:29.258Z,40.97
2019-02-02T05:07:56.104Z,42.43
2019-02-02T05:10:23.839Z,45.23
2019-02-02T05:12:51.117Z,43.33
2019-02-02T05:15:18.363Z,46.43
2019-02-02T05:17:45.323Z,43.43
2019-02-02T05:20:13.095Z,46.07
2019-02-02T05:22:40.059Z,44.23
2019-02-02T05:25:07.235Z,43.70
2019-02-02T05:27:34.126Z,46.13
2019-02-02T05:30:00.979Z,44.50
2019-02-02T05:32:27.829Z,42.37
2019-02-02T05:34:54.811Z,46.13
2019-02-02T05:37:21.775Z,43.00
2019-02-02T05:39:48.523Z,48.07
2019-02-02T05:42:15.531Z,53.90
2019-02-02T05:44:42.238Z,48.53
2019-02-02T05:47:08.999Z,53.00
2019-02-02T05:49:35.719Z,50.93
2019-02-02T05:52:02.635Z,54.20
2019-02-02T05:54:29.608Z,51.60
2019-02-02T05:56:56.447Z,53.90
2019-02-02T05:59:23.195Z,59.33
2019-02-02T06:01:50.181Z,55.83
2019-02-02T06:04:17.062Z,54.23
2019-02-02T06:06:43.996Z,52.90
2019-02-02T06:09:10.840Z,56.93
2019-02-02T06:11:37.811Z,50.47
2019-02-02T06:14:04.656Z,54.20
2019-02-02T06:16:31.429Z,58.50
2019-02-02T06:18:58.231Z,53.07
2019-02-02T06:21:25.118Z,50.07
2019-02-02T06:23:51.858Z,55.70
2019-02-02T06:26:18.624Z,52.63
2019-02-02T06:28:45.351Z,51.07
2019-02-02T06:31:12.299Z,51.53
2019-02-02T06:33:39.131Z,57.13
2019-02-02T06:36:06.003Z,56.10
2019-02-02T06:38:33.003Z,55.80
2019-02-02T06:40:59.779Z,56.50
2019-02-02T06:43:26.535Z,57.47
2019-02-02T06:45:53.523Z,57.03
2019-02-02T06:48:20.363Z,57.83
2019-02-02T06:50:47.208Z,58.93
2019-02-02T06:53:14.072Z,57.87
2019-02-02T06:55:40.841Z,53.20
2019-02-02T06:58:07.795Z,54.23
2019-02-02T07:00:34.616Z,55.60
2019-02-02T07:03:01.636Z,54.33
2019-02-02T07:05:28.627Z,54.90
2019-02-02T07:07:55.471Z,57.17
2019-02-02T07:10:23.962Z,54.20
2019-02-02T07:12:50.943Z,60.60
2019-02-02T07:15:19.791Z,56.30
2019-02-02T07:17:46.795Z,52.77
2019-02-02T07:20:13.771Z,52.43
2019-02-02T07:22:40.651Z,50.27
2019-02-02T07:25:07.935Z,55.27
2019-02-02T07:27:34.894Z,51.87
2019-02-02T07:30:01.872Z,54.57
2019-02-02T07:32:28.631Z,55.40
2019-02-02T07:34:55.355Z,56.80
2019-02-02T07:37:22.163Z,52.40
2019-02-02T07:39:49.055Z,54.30
2019-02-02T07:42:15.882Z,58.70
2019-02-02T07:44:42.596Z,56.77
2019-02-02T07:47:09.511Z,53.27
2019-02-02T07:49:36.266Z,55.30
2019-02-02T07:52:03.203Z,55.67
2019-02-02T07:54:32.965Z,58.30
2019-02-02T07:56:58.839Z,58.10
2019-02-02T07:59:25.610Z,54.07
2019-02-02T08:01:52.589Z,50.93
2019-02-02T08:04:19.418Z,53.87
2019-02-02T08:06:46.416Z,52.93
2019-02-02T08:09:13.435Z,52.07
2019-02-02T08:11:40.321Z,51.10
2019-02-02T08:14:07.267Z,54.17
2019-02-02T08:16:34.226Z,56.43
2019-02-02T08:19:01.135Z,50.77
2019-02-02T08:21:27.867Z,53.40
2019-02-02T08:23:54.567Z,58.13
2019-02-02T08:26:21.419Z,53.00
2019-02-02T08:28:48.311Z,51.80
2019-02-02T08:31:15.215Z,61.00
2019-02-02T08:33:43.443Z,58.00
2019-02-02T08:36:11.004Z,58.83
2019-02-02T08:38:37.763Z,55.63
2019-02-02T08:41:04.867Z,65.43
2019-02-02T08:43:31.608Z,61.47
2019-02-02T08:45:58.635Z,59.60
2019-02-02T08:48:25.391Z,61.03
2019-02-02T08:50:52.396Z,61.83
2019-02-02T08:53:19.397Z,64.80
2019-02-02T08:55:46.256Z,55.63
2019-02-02T08:58:13.142Z,61.57
2019-02-02T09:00:40.269Z,55.17
2019-02-02T09:03:07.261Z,64.50
2019-02-02T09:05:34.327Z,58.13
2019-02-02T09:08:01.384Z,58.40
2019-02-02T09:10:28.591Z,54.00
2019-02-02T09:12:56.051Z,57.73
2019-02-02T09:15:22.995Z,62.20
2019-02-02T09:17:49.959Z,66.03
2019-02-02T09:20:17.217Z,61.43
2019-02-02T09:22:44.408Z,61.17
2019-02-02T09:25:12.759Z,57.53
2019-02-02T09:27:39.900Z,61.03
2019-02-02T09:30:15.379Z,59.77
2019-02-02T09:32:42.219Z,60.63
2019-02-02T09:35:09.280Z,66.57
2019-02-02T09:37:36.191Z,68.47
2019-02-02T09:40:04.527Z,63.57
2019-02-02T09:42:31.244Z,62.97
2019-02-02T09:44:58.127Z,67.40
2019-02-02T09:47:25.105Z,65.20
2019-02-02T09:49:51.982Z,72.37
2019-02-02T09:52:18.963Z,67.57
2019-02-02T09:54:45.712Z,66.40
2019-02-02T09:57:12.487Z,72.33
2019-02-02T09:59:39.489Z,76.00
2019-02-02T10:02:06.243Z,67.70
2019-02-02T10:04:32.962Z,64.47
2019-02-02T10:06:59.802Z,69.17
2019-02-02T10:09:26.711Z,67.50
2019-02-02T10:11:53.703Z,72.53
2019-02-02T10:14:20.545Z,78.60
2019-02-02T10:16:47.343Z,83.53
2019-02-02T10:19:14.678Z,82.57
2019-02-02T10:21:41.777Z,86.67
2019-02-02T10:24:08.655Z,85.40
2019-02-02T10:26:35.551Z,90.13
2019-02-02T10:29:02.868Z,86.83
2019-02-02T10:31:39.314Z,88.07
2019-02-02T10:33:58.278Z,87.10
2019-02-02T10:36:25.254Z,84.90
2019-02-02T10:38:52.127Z,82.23
2019-02-02T10:41:19.093Z,93.27
2019-02-02T10:43:46.106Z,86.07
2019-02-02T10:46:13.079Z,87.57
2019-02-02T10:48:39.927Z,80.07
2019-02-02T10:51:06.846Z,82.03
2019-02-02T10:53:33.788Z,73.60
2019-02-02T10:56:00.711Z,69.53
2019-02-02T10:58:27.695Z,76.80
2019-02-02T11:00:54.883Z,71.53
2019-02-02T11:03:21.717Z,65.87
2019-02-02T11:05:48.527Z,68.77
2019-02-02T11:08:15.622Z,65.40
2019-02-02T11:10:42.629Z,68.00
2019-02-02T11:13:09.876Z,70.70
2019-02-02T11:15:36.931Z,68.63
2019-02-02T11:18:04.772Z,71.67
2019-02-02T11:20:32.983Z,64.47
2019-02-02T11:23:00.121Z,68.80
2019-02-02T11:25:27.137Z,69.77
2019-02-02T11:27:54.133Z,72.73
2019-02-02T11:30:21.704Z,68.37
2019-02-02T11:32:48.687Z,68.53
2019-02-02T11:35:15.676Z,83.57
2019-02-02T11:37:42.709Z,78.90
2019-02-02T11:40:12.955Z,68.80
2019-02-02T11:42:41.337Z,80.17
2019-02-02T11:45:09.594Z,67.17
2019-02-02T11:47:36.612Z,77.03
2019-02-02T11:50:04.543Z,65.33
2019-02-02T11:52:31.571Z,73.60
2019-02-02T11:54:58.531Z,77.23
2019-02-02T11:57:25.307Z,81.77
2019-02-02T11:59:52.259Z,82.40
2019-02-02T12:02:19.088Z,73.60
2019-02-02T12:04:45.936Z,75.93
2019-02-02T12:07:16.289Z,83.00
2019-02-02T12:09:43.952Z,77.27
2019-02-02T12:12:10.964Z,82.37
2019-02-02T12:14:37.707Z,77.20
2019-02-02T12:17:04.687Z,81.37
2019-02-02T12:19:31.565Z,81.40
2019-02-02T12:21:58.622Z,80.47
2019-02-02T12:24:25.495Z,84.40
2019-02-02T12:26:52.354Z,76.77
2019-02-02T12:29:19.117Z,81.37
2019-02-02T12:31:46.071Z,88.60
2019-02-02T12:34:13.047Z,78.40
2019-02-02T12:36:40.039Z,78.63
2019-02-02T12:39:09.806Z,79.00
2019-02-02T12:41:36.629Z,77.87
2019-02-02T12:44:03.795Z,85.30
2019-02-02T12:46:30.531Z,76.60
2019-02-02T12:48:57.427Z,83.47
2019-02-02T12:51:24.403Z,82.07
2019-02-02T12:53:51.105Z,82.03
2019-02-02T12:56:17.951Z,81.90
2019-02-02T12:58:44.783Z,80.77
2019-02-02T13:01:11.618Z,84.93
2019-02-02T13:03:38.483Z,80.63
2019-02-02T13:06:05.436Z,78.53
2019-02-02T13:08:32.331Z,78.17
2019-02-02T13:10:59.415Z,71.03
2019-02-02T13:13:26.191Z,66.60
2019-02-02T13:15:53.055Z,72.13
2019-02-02T13:18:19.915Z,68.57
2019-02-02T13:20:46.639Z,68.43
2019-02-02T13:23:13.652Z,65.60
2019-02-02T13:25:40.495Z,59.37
2019-02-02T13:28:07.442Z,64.80
2019-02-02T13:30:35.235Z,58.00
2019-02-02T13:33:03.119Z,56.60
2019-02-02T13:35:31.767Z,59.63
2019-02-02T13:37:58.731Z,59.60
2019-02-02T13:40:25.720Z,67.67
2019-02-02T13:42:54.282Z,62.43
2019-02-02T13:45:21.441Z,66.73
2019-02-02T13:47:48.601Z,69.17
2019-02-02T13:50:15.604Z,66.80
2019-02-02T13:52:42.887Z,66.50
2019-02-02T13:55:09.979Z,65.83
2019-02-02T13:57:36.965Z,64.00
2019-02-02T14:00:06.040Z,55.87
2019-02-02T14:02:32.899Z,53.50
2019-02-02T14:04:59.801Z,52.33
2019-02-02T14:07:26.759Z,49.93
2019-02-02T14:09:53.615Z,47.90
2019-02-02T14:12:20.512Z,51.37
2019-02-02T14:14:47.484Z,49.70
2019-02-02T14:17:14.347Z,58.23
2019-02-02T14:19:41.122Z,60.83
2019-02-02T14:22:08.001Z,59.53
2019-02-02T14:24:35.018Z,58.20
2019-02-02T14:27:02.000Z,63.20
2019-02-02T14:29:28.905Z,67.97
2019-02-02T14:31:55.662Z,78.67
2019-02-02T14:34:22.539Z,69.30
2019-02-02T14:36:49.303Z,71.63
2019-02-02T14:39:16.175Z,68.00
2019-02-02T14:41:43.067Z,69.87
2019-02-02T14:44:09.797Z,65.33
2019-02-02T14:46:36.678Z,64.87
2019-02-02T14:49:03.723Z,69.33
2019-02-02T14:51:30.505Z,64.37
2019-02-02T14:53:57.344Z,68.00
2019-02-02T14:56:24.187Z,67.20
2019-02-02T14:58:51.232Z,64.30
2019-02-02T15:01:18.075Z,70.63
2019-02-02T15:03:44.827Z,64.97
2019-02-02T15:06:11.699Z,69.03
2019-02-02T15:08:38.583Z,64.70
2019-02-02T15:11:05.459Z,70.20
2019-02-02T15:13:32.224Z,69.13
2019-02-02T15:15:59.184Z,76.57
2019-02-02T15:18:26.210Z,70.63
2019-02-02T15:20:53.243Z,74.93
2019-02-02T15:23:20.206Z,76.47
2019-02-02T15:25:46.927Z,81.37
2019-02-02T15:28:13.684Z,80.43
2019-02-02T15:30:40.620Z,80.57
2019-02-02T15:33:07.384Z,74.93
2019-02-02T15:35:34.355Z,79.37
2019-02-02T15:38:01.301Z,82.33
2019-02-02T15:40:31.541Z,85.67
2019-02-02T15:42:57.559Z,77.73
2019-02-02T15:45:25.561Z,83.67
2019-02-02T15:47:52.423Z,81.37
2019-02-02T15:50:19.406Z,74.00
2019-02-02T15:52:46.602Z,80.67
2019-02-02T15:55:18.588Z,80.97
2019-02-02T15:57:45.624Z,86.83
2019-02-02T16:00:16.076Z,83.13
2019-02-02T16:02:43.271Z,80.77
2019-02-02T16:05:11.596Z,82.47
2019-02-02T16:07:38.596Z,75.33
2019-02-02T16:10:08.772Z,84.50
2019-02-02T16:12:35.523Z,87.00
2019-02-02T16:15:03.552Z,83.60
2019-02-02T16:17:30.639Z,80.23
2019-02-02T16:19:57.504Z,80.63
2019-02-02T16:22:24.424Z,79.80
2019-02-02T16:24:51.297Z,84.43
2019-02-02T16:27:20.577Z,83.17
2019-02-02T16:29:47.448Z,83.33
2019-02-02T16:32:14.311Z,77.50
2019-02-02T16:34:41.196Z,81.50
2019-02-02T16:37:08.040Z,80.17
2019-02-02T16:39:35.085Z,79.27
2019-02-02T16:42:02.088Z,87.47
2019-02-02T16:44:28.831Z,81.40
2019-02-02T16:46:55.562Z,76.37
2019-02-02T16:49:22.577Z,83.73
2019-02-02T16:51:49.308Z,83.67
2019-02-02T16:54:16.210Z,82.87
2019-02-02T16:56:43.063Z,84.27
2019-02-02T16:59:09.923Z,78.33
2019-02-02T17:01:37.754Z,86.13
2019-02-02T17:04:15.536Z,77.87
2019-02-02T17:06:35.531Z,76.00
2019-02-02T17:09:04.448Z,75.70
2019-02-02T17:11:33.283Z,73.87
2019-02-02T17:14:00.487Z,83.17
2019-02-02T17:16:27.863Z,78.00
2019-02-02T17:18:54.587Z,83.77
2019-02-02T17:21:21.431Z,81.90
2019-02-02T17:23:48.320Z,75.07
2019-02-02T17:26:15.189Z,73.60
2019-02-02T17:28:41.954Z,77.37
2019-02-02T17:31:11.490Z,80.67
2019-02-02T17:33:38.724Z,80.13
2019-02-02T17:36:05.563Z,79.37
2019-02-02T17:38:32.561Z,79.67
2019-02-02T17:41:01.514Z,82.33
2019-02-02T17:43:29.611Z,84.17
2019-02-02T17:45:57.717Z,84.63
2019-02-02T17:48:28.352Z,80.97
2019-02-02T17:50:55.485Z,74.30
2019-02-02T17:53:23.903Z,76.40
2019-02-02T17:55:51.411Z,76.80
2019-02-02T17:58:18.701Z,77.27
2019-02-02T18:00:51.179Z,84.63
2019-02-02T18:03:18.072Z,84.77
2019-02-02T18:05:45.069Z,80.87
2019-02-02T18:08:12.029Z,80.53
2019-02-02T18:10:38.903Z,79.70
2019-02-02T18:13:08.344Z,84.23
2019-02-02T18:15:36.918Z,79.73
2019-02-02T18:18:04.964Z,80.07
2019-02-02T18:20:31.815Z,78.77
2019-02-02T18:22:58.673Z,81.37
2019-02-02T18:25:25.575Z,82.10
2019-02-02T18:27:52.570Z,83.70
2019-02-02T18:30:19.927Z,82.50
2019-02-02T18:32:47.067Z,88.57
2019-02-02T18:35:14.492Z,92.83
2019-02-02T18:37:41.447Z,84.30
2019-02-02T18:40:09.935Z,82.37
2019-02-02T18:42:36.984Z,79.87
2019-02-02T18:45:04.747Z,76.20
2019-02-02T18:47:31.588Z,84.03
2019-02-02T18:49:58.541Z,85.53
2019-02-02T18:52:25.322Z,79.43
2019-02-02T18:54:52.182Z,79.47
2019-02-02T18:57:19.102Z,82.90
2019-02-02T18:59:46.051Z,76.10
2019-02-02T19:02:12.828Z,71.53
2019-02-02T19:04:39.727Z,80.20
2019-02-02T19:07:06.599Z,72.87
2019-02-02T19:09:33.527Z,71.50
2019-02-02T19:12:00.263Z,74.87
2019-02-02T19:14:27.114Z,62.53
2019-02-02T19:17:00.761Z,62.90
2019-02-02T19:19:28.382Z,57.10
2019-02-02T19:21:55.260Z,56.17
2019-02-02T19:24:22.043Z,51.90
2019-02-02T19:26:48.888Z,52.90
2019-02-02T19:29:15.641Z,44.00
2019-02-02T19:31:42.543Z,40.57
2019-02-02T19:34:09.451Z,41.23
2019-02-02T19:36:36.363Z,36.17
2019-02-02T19:39:06.433Z,32.43
2019-02-02T19:41:33.167Z,32.27
2019-02-02T19:44:00.153Z,31.80
2019-02-02T19:46:27.131Z,33.23
2019-02-02T19:48:54.155Z,30.60
2019-02-02T19:51:21.047Z,30.70
2019-02-02T19:53:47.948Z,29.23
2019-02-02T19:56:14.662Z,29.13
2019-02-02T19:58:41.615Z,29.03
2019-02-02T20:01:08.635Z,32.77
2019-02-02T20:03:35.466Z,29.77
2019-02-02T20:06:02.607Z,31.80
2019-02-02T20:08:29.543Z,31.30
2019-02-02T20:10:56.283Z,35.97
2019-02-02T20:13:23.169Z,34.57
2019-02-02T20:15:50.218Z,33.73
2019-02-02T20:18:17.239Z,39.57
2019-02-02T20:20:44.093Z,34.93
2019-02-02T20:23:11.119Z,35.03
2019-02-02T20:25:38.132Z,36.90
2019-02-02T20:28:05.132Z,34.17
2019-02-02T20:30:33.366Z,32.47
2019-02-02T20:33:00.607Z,31.77
2019-02-02T20:35:39.797Z,37.47
2019-02-02T20:37:56.688Z,33.60
2019-02-02T20:40:24.195Z,32.37
2019-02-02T20:42:51.127Z,32.93
2019-02-02T20:45:20.809Z,30.77
2019-02-02T20:47:47.996Z,31.60
2019-02-02T20:50:16.263Z,32.63
2019-02-02T20:52:51.226Z,37.57
2019-02-02T20:55:26.475Z,32.13
2019-02-02T20:57:53.506Z,36.97
2019-02-02T21:00:23.663Z,34.50
2019-02-02T21:02:50.701Z,33.17
2019-02-02T21:05:17.667Z,37.43
2019-02-02T21:07:44.830Z,35.47
2019-02-02T21:10:16.081Z,45.67
2019-02-02T21:12:43.078Z,35.70
2019-02-02T21:15:10.577Z,39.17
2019-02-02T21:17:37.859Z,33.97
2019-02-02T21:20:07.816Z,38.50
2019-02-02T21:22:38.371Z,35.53
2019-02-02T21:25:06.789Z,36.93
2019-02-02T21:27:34.055Z,36.70
2019-02-02T21:30:01.864Z,43.70
2019-02-02T21:32:29.103Z,48.57
2019-02-02T21:34:56.417Z,40.00
2019-02-02T21:37:23.331Z,40.33
2019-02-02T21:39:59.566Z,40.03
2019-02-02T21:42:26.718Z,40.27
2019-02-02T21:44:53.575Z,37.33
2019-02-02T21:47:20.713Z,38.33
2019-02-02T21:49:47.691Z,42.43
2019-02-02T21:52:14.959Z,39.97
2019-02-02T21:54:42.155Z,35.30
2019-02-02T21:57:11.403Z,36.27
2019-02-02T21:59:38.508Z,37.20
2019-02-02T22:02:08.825Z,34.83
2019-02-02T22:04:36.378Z,32.23
2019-02-02T22:07:05.507Z,35.80
2019-02-02T22:09:32.984Z,31.03
2019-02-02T22:12:00.754Z,39.33
2019-02-02T22:14:27.537Z,31.63
2019-02-02T22:16:54.496Z,31.23
2019-02-02T22:19:21.765Z,37.77
2019-02-02T22:21:53.479Z,35.73
2019-02-02T22:24:22.559Z,38.53
2019-02-02T22:26:49.594Z,29.13
2019-02-02T22:29:16.704Z,32.03
2019-02-02T22:31:43.687Z,32.23
2019-02-02T22:34:10.519Z,31.77
2019-02-02T22:36:37.483Z,34.00
2019-02-02T22:39:07.058Z,29.60
2019-02-02T22:41:33.983Z,28.20
2019-02-02T22:44:01.038Z,31.07
2019-02-02T22:46:27.910Z,28.03
2019-02-02T22:48:54.803Z,29.40
2019-02-02T22:51:21.787Z,28.70
2019-02-02T22:53:48.760Z,24.10
2019-02-02T22:56:15.616Z,20.80
2019-02-02T22:58:42.606Z,21.13
2019-02-02T23:01:30.065Z,20.83
2019-02-02T23:04:06.350Z,17.43
2019-02-02T23:07:02.815Z,21.17
2019-02-02T23:10:07.135Z,18.40
2019-02-02T23:12:44.167Z,18.90
2019-02-02T23:15:53.199Z,17.27
2019-02-02T23:18:20.287Z,17.70
2019-02-02T23:20:47.250Z,17.43
2019-02-02T23:23:14.299Z,19.33
2019-02-02T23:25:41.707Z,20.27
2019-02-02T23:28:08.593Z,17.97
2019-02-02T23:30:35.344Z,18.63
2019-02-02T23:33:02.324Z,18.23
2019-02-02T23:35:29.163Z,17.80
2019-02-02T23:37:56.231Z,20.43
2019-02-02T23:40:23.132Z,18.77
2019-02-02T23:42:50.151Z,18.97
2019-02-02T23:45:16.986Z,17.73
2019-02-02T23:47:44.036Z,20.30
2019-02-02T23:50:10.883Z,19.23
2019-02-02T23:52:38.038Z,21.20
2019-02-02T23:55:05.303Z,19.57
2019-02-02T23:57:32.618Z,18.37
2019-02-02T23:59:59.499Z,20.17
